Time;durP1;ratioP1;P1;durP2;ratioP2;P2;SDS_P1;SDS_P2;PMS_P1;PMS_P2;Temp;Humidity;BMP_temperature;BMP_pressure;BME280_temperature;BME280_humidity;BME280_pressure;Samples;Min_cycle;Max_cycle;Signal;HPM_P1;HPM_P2
2022/11/25 14:18:29;;;;;;;17.75;10.63;;;;;;;0.93;100.00;99779.30;1835061;76;27263;-62
2022/11/25 14:21:22;;;;;;;17.67;10.00;;;;;;;1.60;100.00;99804.17;1721747;78;21077;-71
2022/11/25 14:23:57;;;;;;;15.83;9.83;;;;;;;1.84;100.00;99791.52;1824154;77;21857;-68
2022/11/25 14:26:33;;;;;;;16.87;9.63;;;;;;;1.95;100.00;99784.55;1816878;77;21065;-70
2022/11/25 14:29:09;;;;;;;18.05;9.95;;;;;;;2.08;100.00;99776.70;1824857;77;21583;-71
2022/11/25 14:31:53;;;;;;;16.12;9.73;;;;;;;2.20;100.00;99767.53;1815730;77;21592;-71
2022/11/25 14:34:28;;;;;;;16.87;9.93;;;;;;;2.31;100.00;99763.58;1822946;77;21011;-71
2022/11/25 14:37:15;;;;;;;15.80;10.18;;;;;;;2.40;100.00;99761.36;1813248;78;22249;-68
2022/11/25 14:39:57;;;;;;;18.32;10.08;;;;;;;2.48;100.00;99756.51;1817998;77;21577;-72
2022/11/25 14:42:29;;;;;;;17.35;9.85;;;;;;;2.57;100.00;99752.98;1826584;77;21695;-72
2022/11/25 14:44:59;;;;;;;19.80;10.35;;;;;;;2.64;100.00;99761.16;1829156;77;21595;-72
2022/11/25 14:47:28;;;;;;;17.45;10.23;;;;;;;2.64;100.00;99757.26;1821510;77;21057;-70
2022/11/25 14:49:58;;;;;;;18.55;10.55;;;;;;;2.64;100.00;99758.56;1780658;78;21695;-71
2022/11/25 14:52:29;;;;;;;16.95;10.35;;;;;;;2.68;100.00;99755.50;1816028;77;21540;-72
2022/11/25 14:55:03;;;;;;;19.85;11.18;;;;;;;2.72;100.00;99763.68;1779690;77;21537;-71
2022/11/25 14:57:37;;;;;;;19.25;11.35;;;;;;;2.73;100.00;99764.97;1757152;79;21465;-70
2022/11/25 15:00:09;;;;;;;23.47;10.95;;;;;;;2.78;100.00;99759.72;1750942;78;21668;-73
2022/11/25 15:02:41;;;;;;;20.30;10.68;;;;;;;2.80;100.00;99765.76;1821565;77;21550;-71
2022/11/25 15:05:15;;;;;;;20.65;11.00;;;;;;;2.81;100.00;99761.00;1763139;77;21595;-72
2022/11/25 15:07:58;;;;;;;19.87;12.23;;;;;;;2.88;100.00;99766.98;1787574;77;21432;-71
2022/11/25 15:10:42;;;;;;;23.47;10.95;;;;;;;2.89;100.00;99770.88;1769655;78;21466;-72
2022/11/25 15:13:42;;;;;;;23.05;11.57;;;;;;;2.90;100.00;99765.23;1824426;77;21540;-72
2022/11/25 15:16:26;;;;;;;19.67;11.45;;;;;;;2.83;100.00;99772.23;1823829;77;23034;-72
2022/11/25 15:19:05;;;;;;;18.45;10.65;;;;;;;2.83;100.00;99776.58;1781795;78;21576;-72
2022/11/25 15:21:41;;;;;;;17.95;11.03;;;;;;;2.86;100.00;99778.71;1825887;77;21513;-73
2022/11/25 15:24:51;;;;;;;20.48;11.43;;;;;;;2.91;100.00;99778.20;1750755;77;21473;-71
2022/11/25 15:27:39;;;;;;;21.57;11.45;;;;;;;2.96;100.00;99782.49;1823594;77;21549;-73
2022/11/25 15:30:34;;;;;;;25.37;11.93;;;;;;;2.90;100.00;99782.11;1777078;77;21772;-69
2022/11/25 15:33:16;;;;;;;19.05;11.20;;;;;;;2.93;100.00;99780.80;1787723;77;21044;-78
2022/11/25 15:35:57;;;;;;;17.92;11.03;;;;;;;2.92;100.00;99790.33;1801660;77;21964;-71
2022/11/25 15:38:42;;;;;;;20.27;12.20;;;;;;;2.92;100.00;99789.48;1793297;78;21514;-70
2022/11/25 15:41:39;;;;;;;19.17;11.80;;;;;;;2.91;100.00;99794.23;1815602;77;21732;-72
2022/11/25 15:44:25;;;;;;;18.75;10.85;;;;;;;2.92;100.00;99792.93;1796562;78;22156;-69
2022/11/25 15:47:31;;;;;;;21.95;11.20;;;;;;;2.98;100.00;99797.20;1822338;77;21521;-69
2022/11/25 15:50:25;;;;;;;17.35;10.65;;;;;;;2.98;100.00;99800.25;1809530;77;21034;-69
2022/11/25 15:53:05;;;;;;;21.23;10.80;;;;;;;3.00;100.00;99794.16;1815990;77;21636;-69
2022/11/25 15:55:59;;;;;;;19.27;10.80;;;;;;;3.01;100.00;99792.41;1800364;77;21553;-69
2022/11/25 15:58:46;;;;;;;21.25;11.15;;;;;;;3.02;100.00;99787.20;1818227;77;21813;-69
2022/11/25 16:01:28;;;;;;;18.00;11.30;;;;;;;3.05;100.00;99788.90;1819986;77;21398;-69
2022/11/25 16:04:18;;;;;;;19.67;10.82;;;;;;;3.07;100.00;99788.03;1815703;77;21663;-70
2022/11/25 16:07:04;;;;;;;17.50;10.65;;;;;;;3.09;100.00;99797.97;1801427;77;21581;-69
2022/11/25 16:09:50;;;;;;;22.77;10.68;;;;;;;3.10;100.00;99793.17;1803279;77;21517;-69
2022/11/25 16:12:30;;;;;;;15.55;10.72;;;;;;;3.16;100.00;99797.89;1796055;77;21912;-70
2022/11/25 16:15:17;;;;;;;15.85;10.38;;;;;;;3.15;100.00;99787.09;1790968;78;21107;-70
2022/11/25 16:17:58;;;;;;;19.52;10.72;;;;;;;3.11;100.00;99793.61;1783114;77;21561;-73
2022/11/25 16:20:38;;;;;;;20.15;11.28;;;;;;;3.16;100.00;99798.75;1795965;78;21581;-71
2022/11/25 16:23:20;;;;;;;19.80;11.08;;;;;;;3.18;100.00;99796.14;1815007;78;21635;-68
2022/11/25 16:26:04;;;;;;;16.87;10.32;;;;;;;3.17;100.00;99800.93;1824251;77;21908;-69
2022/11/25 16:28:51;;;;;;;15.80;10.88;;;;;;;3.15;100.00;99792.30;1774056;77;21652;-69
2022/11/25 16:31:31;;;;;;;17.52;10.15;;;;;;;3.11;100.00;99796.21;1780149;78;21596;-68
2022/11/25 16:34:20;;;;;;;17.98;10.43;;;;;;;3.12;100.00;99800.52;1820849;77;21100;-69
2022/11/25 16:37:01;;;;;;;16.90;9.63;;;;;;;3.17;100.00;99799.19;1806774;77;21505;-69
2022/11/25 16:39:41;;;;;;;15.35;10.10;;;;;;;3.18;100.00;99800.04;1812189;77;21803;-68
2022/11/25 16:42:23;;;;;;;16.65;9.58;;;;;;;3.22;100.00;99803.02;1711029;79;21541;-67
2022/11/25 16:45:03;;;;;;;18.30;10.18;;;;;;;3.26;100.00;99807.34;1816066;77;21064;-69
2022/11/25 16:47:44;;;;;;;17.17;10.18;;;;;;;3.27;100.00;99803.39;1742342;77;21603;-70
2022/11/25 16:50:26;;;;;;;15.38;9.45;;;;;;;3.29;100.00;99805.53;1813563;77;21496;-69
2022/11/25 16:53:06;;;;;;;13.75;8.95;;;;;;;3.28;100.00;99797.34;1811592;77;21943;-68
2022/11/25 16:55:48;;;;;;;14.60;9.10;;;;;;;3.28;100.00;99804.28;1809620;77;21544;-68
2022/11/25 16:58:28;;;;;;;14.00;8.68;;;;;;;3.28;100.00;99810.78;1813242;77;21526;-69
2022/11/25 17:01:07;;;;;;;14.85;9.65;;;;;;;3.31;100.00;99804.23;1819710;77;21065;-68
2022/11/25 17:03:47;;;;;;;14.98;9.18;;;;;;;3.35;100.00;99811.11;1805323;77;21681;-67
2022/11/25 17:06:31;;;;;;;13.80;8.88;;;;;;;3.33;100.00;99819.36;1808491;77;21892;-68
2022/11/25 17:09:11;;;;;;;13.32;8.53;;;;;;;3.31;100.00;99812.02;1806351;77;21540;-70
2022/11/25 17:11:55;;;;;;;12.75;9.10;;;;;;;3.30;100.00;99816.38;1799279;77;21037;-68
2022/11/25 17:14:36;;;;;;;14.28;9.33;;;;;;;3.30;100.00;99818.97;1793791;77;21469;-68
2022/11/25 17:17:19;;;;;;;13.13;9.15;;;;;;;3.31;100.00;99818.11;1812272;77;21138;-68
2022/11/25 17:19:59;;;;;;;12.88;8.85;;;;;;;3.33;100.00;99820.66;1774355;78;22136;-69
2022/11/25 17:22:46;;;;;;;14.55;8.68;;;;;;;3.34;100.00;99823.70;1818027;76;20938;-68
2022/11/25 17:25:33;;;;;;;14.38;9.13;;;;;;;3.34;100.00;99822.84;1821147;77;21544;-70
2022/11/25 17:28:14;;;;;;;13.35;9.35;;;;;;;3.36;100.00;99830.19;1819950;77;21494;-70
2022/11/25 17:30:54;;;;;;;14.13;9.35;;;;;;;3.37;100.00;99830.59;1805725;77;21589;-70
2022/11/25 17:33:35;;;;;;;14.30;9.35;;;;;;;3.35;100.00;99830.60;1806823;77;21945;-68
2022/11/25 17:36:15;;;;;;;14.68;8.90;;;;;;;3.33;100.00;99831.06;1810663;77;21458;-68
2022/11/25 17:38:55;;;;;;;15.95;9.40;;;;;;;3.31;100.00;99832.41;1823726;77;21446;-68
2022/11/25 17:41:42;;;;;;;15.32;9.33;;;;;;;3.25;100.00;99829.84;1805051;77;20966;-67
2022/11/25 17:44:34;;;;;;;14.23;8.98;;;;;;;3.22;100.00;99829.01;1828208;77;21559;-68
2022/11/25 17:47:16;;;;;;;13.80;8.38;;;;;;;3.20;100.00;99819.06;1820924;77;22177;-68
2022/11/25 17:49:57;;;;;;;12.47;8.23;;;;;;;3.20;100.00;99824.27;1825391;77;21493;-68
2022/11/25 17:52:38;;;;;;;11.45;8.05;;;;;;;3.21;100.00;99822.11;1817453;77;21529;-67
2022/11/25 17:55:18;;;;;;;14.33;8.63;;;;;;;3.22;100.00;99819.91;1820463;77;21596;-67
2022/11/25 17:57:58;;;;;;;11.15;6.58;;;;;;;3.28;100.00;99815.53;1822514;77;20946;-67
2022/11/25 18:00:38;;;;;;;11.12;7.03;;;;;;;3.31;100.00;99801.63;1781730;78;21810;-68
2022/11/25 18:03:18;;;;;;;10.05;6.83;;;;;;;3.30;100.00;99803.83;1820436;77;21596;-69
2022/11/25 18:06:07;;;;;;;10.08;6.95;;;;;;;3.33;100.00;99805.07;1658445;84;21644;-68
2022/11/25 18:08:40;;;;;;;10.10;6.03;;;;;;;3.36;100.00;99805.50;1658176;84;21449;-72
2022/11/25 18:11:34;;;;;;;7.37;5.45;;;;;;;3.38;100.00;99806.34;1695664;82;21576;-71
2022/11/25 22:26:32;;;;;;;5.03;3.77;;;;;;;1.94;100.00;99934.55;1761631;80;22007;-73
2022/11/25 22:29:28;;;;;;;3.47;3.15;;;;;;;2.11;100.00;99921.93;1719769;80;21414;-72
2022/11/25 22:32:21;;;;;;;3.62;3.12;;;;;;;2.22;100.00;99917.56;1756037;80;21630;-72
2022/11/25 22:35:21;;;;;;;5.30;3.70;;;;;;;2.33;100.00;99905.84;1767455;78;21670;-74
2022/11/25 22:38:22;;;;;;;4.85;3.27;;;;;;;2.45;100.00;99898.42;1761186;79;21620;-72
2022/11/25 22:41:16;;;;;;;4.17;3.02;;;;;;;2.57;100.00;99897.50;1762564;80;21801;-73
2022/11/25 22:43:56;;;;;;;3.50;3.17;;;;;;;2.69;100.00;99895.70;1762857;78;21647;-74
2022/11/25 22:46:50;;;;;;;3.52;3.10;;;;;;;2.79;100.00;99898.20;1739767;80;21553;-72
2022/11/25 22:49:45;;;;;;;3.10;2.20;;;;;;;2.83;100.00;99886.95;1763911;79;21698;-73
2022/11/25 22:52:40;;;;;;;3.40;3.10;;;;;;;2.89;100.00;99892.09;1759896;79;21110;-73
2022/11/25 22:55:36;;;;;;;3.77;3.27;;;;;;;2.93;100.00;99884.69;1763585;78;21869;-73
2022/11/25 22:58:32;;;;;;;4.75;3.40;;;;;;;3.00;100.00;99887.67;1745025;79;21497;-74
2022/11/25 23:01:26;;;;;;;3.75;3.20;;;;;;;3.04;100.00;99886.77;1741074;80;21068;-71
2022/11/25 23:04:25;;;;;;;2.92;2.72;;;;;;;3.09;100.00;99888.90;1755742;79;21588;-73
2022/11/25 23:07:19;;;;;;;4.47;3.10;;;;;;;3.11;100.00;99889.75;1752827;80;21674;-73
2022/11/25 23:10:24;;;;;;;4.60;2.80;;;;;;;3.08;100.00;99896.25;1749755;80;21898;-73
2022/11/25 23:13:19;;;;;;;4.25;3.60;;;;;;;2.70;100.00;99842.03;1752561;79;21718;-72
2022/11/25 23:16:15;;;;;;;3.15;2.70;;;;;;;3.01;100.00;99897.62;1759129;79;21493;-73
2022/11/25 23:18:54;;;;;;;3.12;2.85;;;;;;;3.00;100.00;99898.06;1734621;80;22197;-73
2022/11/25 23:21:50;;;;;;;3.25;2.85;;;;;;;3.05;100.00;99898.02;1748361;80;21445;-73
2022/11/25 23:24:29;;;;;;;2.50;2.30;;;;;;;3.09;100.00;99899.29;1747632;78;21815;-71
2022/11/25 23:27:23;;;;;;;2.52;2.33;;;;;;;3.12;100.00;99897.09;1746960;79;21628;-72
2022/11/25 23:30:05;;;;;;;3.52;2.62;;;;;;;3.13;100.00;99897.53;1756849;79;21466;-70
2022/11/25 23:32:58;;;;;;;3.45;2.77;;;;;;;3.18;100.00;99902.67;1754941;79;21014;-70
2022/11/25 23:35:38;;;;;;;2.83;2.63;;;;;;;3.20;100.00;99905.70;1743212;80;21493;-71
2022/11/25 23:38:32;;;;;;;3.12;2.12;;;;;;;3.24;100.00;99905.22;1735798;79;21906;-70
2022/11/25 23:41:29;;;;;;;3.80;2.80;;;;;;;3.27;100.00;99908.65;1745926;79;21049;-70
2022/11/25 23:44:32;;;;;;;3.20;2.87;;;;;;;3.31;100.00;99901.27;1766463;80;21149;-70
2022/11/25 23:47:28;;;;;;;2.75;2.47;;;;;;;3.29;100.00;99899.09;1755390;80;21576;-71
2022/11/25 23:50:28;;;;;;;2.72;2.50;;;;;;;3.31;100.00;99895.19;1761013;79;21493;-69
2022/11/25 23:53:22;;;;;;;3.08;2.77;;;;;;;3.35;100.00;99904.67;1735710;80;21591;-70
2022/11/25 23:56:17;;;;;;;3.20;2.90;;;;;;;3.36;100.00;99897.32;1720326;82;21644;-70
2022/11/25 23:59:19;;;;;;;3.80;3.15;;;;;;;3.35;100.00;99898.19;1695988;82;21574;-73
